Time;durP1;ratioP1;P1;durP2;ratioP2;P2;SDS_P1;SDS_P2;PMS_P1;PMS_P2;Temp;Humidity;BMP_temperature;BMP_pressure;BME280_temperature;BME280_humidity;BME280_pressure;Samples;Min_cycle;Max_cycle;Signal;HPM_P1;HPM_P2
2022/10/21 00:00:05;;;;;;;19.77;8.87;;;15.70;99.90;;;;;;5088840;28;21137;-76
2022/10/21 00:02:51;;;;;;;20.17;8.87;;;15.70;99.90;;;;;;5087371;28;20544;-76
2022/10/21 00:05:36;;;;;;;21.57;7.80;;;15.70;99.90;;;;;;5093571;28;20481;-76
2022/10/21 00:08:23;;;;;;;13.03;8.20;;;15.80;99.90;;;;;;5093405;28;20947;-76
2022/10/21 00:11:09;;;;;;;24.43;8.80;;;15.80;99.90;;;;;;5089351;28;20440;-76
2022/10/21 00:13:55;;;;;;;21.90;7.97;;;15.80;99.90;;;;;;5086550;28;20419;-76
2022/10/21 00:16:42;;;;;;;30.83;8.60;;;15.70;99.90;;;;;;5085975;28;20420;-75
2022/10/21 00:19:28;;;;;;;27.67;9.03;;;15.60;99.90;;;;;;5086014;28;20419;-76
2022/10/21 00:22:13;;;;;;;23.10;9.73;;;15.60;99.90;;;;;;5090542;28;20426;-76
2022/10/21 00:24:59;;;;;;;21.63;9.93;;;15.50;99.90;;;;;;5088553;28;20886;-76
2022/10/21 00:27:45;;;;;;;17.03;8.40;;;15.50;99.90;;;;;;5093251;28;20459;-76
2022/10/21 00:30:30;;;;;;;22.73;7.17;;;15.40;99.90;;;;;;5086733;28;20522;-76
2022/10/21 00:33:17;;;;;;;20.90;8.80;;;15.40;99.90;;;;;;5089793;28;20397;-75
2022/10/21 00:36:06;;;;;;;13.63;8.00;;;15.30;99.90;;;;;;5085478;28;20433;-76
2022/10/21 00:38:51;;;;;;;11.60;7.60;;;15.20;99.90;;;;;;5087153;28;20392;-76
2022/10/21 00:41:37;;;;;;;17.57;7.63;;;15.20;99.90;;;;;;5091377;28;20546;-76
2022/10/21 00:44:22;;;;;;;23.10;8.47;;;15.20;99.90;;;;;;5091703;28;20658;-76
2022/10/21 00:47:12;;;;;;;16.80;6.30;;;15.30;99.90;;;;;;5087095;28;20810;-76
2022/10/21 00:50:02;;;;;;;18.10;7.93;;;15.20;99.90;;;;;;5086393;28;21024;-76
2022/10/21 00:52:48;;;;;;;15.67;8.20;;;15.10;99.90;;;;;;5086950;28;20389;-76
2022/10/21 00:55:37;;;;;;;17.60;8.03;;;15.20;99.90;;;;;;5082357;28;20474;-76
2022/10/21 00:58:26;;;;;;;18.80;8.70;;;15.20;99.90;;;;;;5093001;28;20425;-76
2022/10/21 01:01:12;;;;;;;27.47;8.40;;;15.20;99.90;;;;;;5088731;28;20461;-76
2022/10/21 01:04:00;;;;;;;29.63;9.10;;;15.20;99.90;;;;;;5093012;28;20392;-76
2022/10/21 01:06:47;;;;;;;18.50;8.20;;;15.30;99.90;;;;;;5082429;28;20438;-76
2022/10/21 01:09:33;;;;;;;35.60;11.17;;;15.30;99.90;;;;;;5085958;28;21177;-76
2022/10/21 01:12:25;;;;;;;23.23;8.43;;;15.40;99.90;;;;;;5085969;28;20458;-76
2022/10/21 01:15:18;;;;;;;12.53;8.30;;;15.30;99.90;;;;;;5084498;28;20423;-76
2022/10/21 01:18:12;;;;;;;16.30;9.27;;;15.30;99.90;;;;;;5088864;28;20450;-76
2022/10/21 01:21:08;;;;;;;18.27;8.50;;;15.30;99.90;;;;;;5085942;28;20816;-76
2022/10/21 01:24:41;;;;;;;15.37;8.37;;;15.30;99.90;;;;;;5087502;28;20936;-76
2022/10/21 01:27:38;;;;;;;16.20;10.33;;;15.30;99.90;;;;;;5087305;28;20445;-76
2022/10/21 01:30:36;;;;;;;32.37;9.30;;;15.30;99.90;;;;;;5086261;28;20481;-76
2022/10/21 01:33:40;;;;;;;17.07;8.80;;;15.10;99.90;;;;;;5085832;28;20547;-76
2022/10/21 01:36:33;;;;;;;16.73;8.80;;;15.10;99.90;;;;;;5086672;28;20441;-76
2022/10/21 01:39:25;;;;;;;15.30;8.27;;;15.10;99.90;;;;;;5085593;28;20535;-76
2022/10/21 01:42:17;;;;;;;12.90;7.50;;;15.10;99.90;;;;;;5091725;28;20778;-76
2022/10/21 01:45:10;;;;;;;15.30;7.93;;;15.00;99.90;;;;;;5091641;28;20564;-75
2022/10/21 01:48:02;;;;;;;20.43;8.20;;;15.00;99.90;;;;;;5090439;28;21232;-76
2022/10/21 01:50:52;;;;;;;18.33;9.30;;;14.90;99.90;;;;;;5090704;28;21251;-76
2022/10/21 01:53:44;;;;;;;16.13;8.17;;;14.80;99.90;;;;;;5090995;28;21108;-76
2022/10/21 01:56:31;;;;;;;22.20;9.17;;;14.80;99.90;;;;;;5090506;28;20396;-76
2022/10/21 01:59:19;;;;;;;13.33;7.80;;;14.70;99.90;;;;;;5076303;28;20522;-76
2022/10/21 02:02:07;;;;;;;15.87;7.70;;;14.80;99.90;;;;;;5090339;28;20561;-76
2022/10/21 02:04:56;;;;;;;12.00;7.57;;;14.80;99.90;;;;;;5091072;28;20473;-76
2022/10/21 02:07:43;;;;;;;17.47;7.33;;;14.80;99.90;;;;;;5085306;28;20424;-76
2022/10/21 02:10:33;;;;;;;18.40;8.23;;;14.70;99.90;;;;;;5085952;28;21346;-76
2022/10/21 02:13:23;;;;;;;34.40;8.03;;;14.60;99.90;;;;;;5080168;28;20945;-76
2022/10/21 02:16:13;;;;;;;14.73;7.63;;;14.60;99.90;;;;;;5084612;28;20413;-76
2022/10/21 02:19:00;;;;;;;13.80;7.17;;;14.60;99.90;;;;;;5085124;28;20982;-76
2022/10/21 02:21:51;;;;;;;16.77;7.17;;;14.60;99.90;;;;;;5084261;28;20432;-76
2022/10/21 02:24:40;;;;;;;16.00;8.60;;;14.60;99.90;;;;;;5081677;28;20486;-76
2022/10/21 02:27:26;;;;;;;12.50;8.90;;;14.40;99.90;;;;;;5080086;28;20583;-76
2022/10/21 02:30:12;;;;;;;18.10;7.93;;;14.40;99.90;;;;;;5086227;28;20473;-76
2022/10/21 02:33:04;;;;;;;15.10;7.67;;;14.50;99.90;;;;;;5079083;28;20568;-75
2022/10/21 02:36:02;;;;;;;18.83;8.10;;;14.40;99.90;;;;;;5085215;28;20899;-76
2022/10/21 02:38:54;;;;;;;17.50;8.27;;;14.40;99.90;;;;;;5082963;28;20442;-76
2022/10/21 02:41:42;;;;;;;35.57;8.07;;;14.40;99.90;;;;;;5083343;28;20806;-76
2022/10/21 02:44:27;;;;;;;47.33;9.50;;;14.40;99.90;;;;;;5090583;28;20425;-76
2022/10/21 02:47:15;;;;;;;143.03;10.73;;;14.20;99.90;;;;;;5089947;28;20397;-76
2022/10/21 02:50:01;;;;;;;22.53;8.70;;;14.20;99.90;;;;;;5090461;28;20980;-76
2022/10/21 02:52:47;;;;;;;13.80;7.23;;;14.20;99.90;;;;;;5085307;28;20537;-76
2022/10/21 02:55:33;;;;;;;11.37;8.17;;;14.20;99.90;;;;;;5084403;28;20396;-76
2022/10/21 02:58:19;;;;;;;16.20;8.63;;;14.20;99.90;;;;;;5083642;28;20412;-76
2022/10/21 03:01:04;;;;;;;20.23;8.03;;;14.10;99.90;;;;;;5084578;28;20461;-76
2022/10/21 03:03:50;;;;;;;14.60;7.97;;;14.20;99.90;;;;;;5085174;28;20495;-75
2022/10/21 03:06:36;;;;;;;10.83;7.50;;;14.10;99.90;;;;;;5085671;28;20496;-75
2022/10/21 03:09:21;;;;;;;21.83;7.57;;;14.10;99.90;;;;;;5083166;28;20420;-76
2022/10/21 03:12:09;;;;;;;11.97;7.90;;;14.10;99.90;;;;;;5086634;28;20537;-76
2022/10/21 03:14:54;;;;;;;16.93;9.83;;;14.20;99.90;;;;;;5087388;28;20804;-76
2022/10/21 03:17:40;;;;;;;11.90;7.53;;;14.10;99.90;;;;;;5085275;28;20799;-76
2022/10/21 03:20:26;;;;;;;14.47;8.40;;;14.10;99.90;;;;;;5087883;28;20461;-76
2022/10/21 03:23:11;;;;;;;12.37;8.97;;;14.10;99.90;;;;;;5078103;28;20451;-76
2022/10/21 03:25:57;;;;;;;18.50;7.70;;;14.10;99.90;;;;;;5086737;28;20510;-76
2022/10/21 03:28:44;;;;;;;16.20;7.90;;;14.00;99.90;;;;;;5086542;28;20465;-76
2022/10/21 03:31:29;;;;;;;12.90;8.37;;;14.00;99.90;;;;;;5081174;28;20477;-76
2022/10/21 03:34:15;;;;;;;19.33;8.70;;;14.10;99.90;;;;;;5083356;28;20933;-76
2022/10/21 03:37:01;;;;;;;12.87;8.23;;;14.00;99.90;;;;;;5074204;28;20511;-75
2022/10/21 03:39:46;;;;;;;10.37;8.30;;;14.00;99.90;;;;;;5088580;28;20449;-76
2022/10/21 03:42:32;;;;;;;11.00;7.63;;;14.10;99.90;;;;;;5091591;28;20595;-76
2022/10/21 03:45:19;;;;;;;10.70;7.20;;;14.00;99.90;;;;;;5091089;28;20849;-76
2022/10/21 03:48:05;;;;;;;22.43;8.60;;;14.10;99.90;;;;;;5087482;28;20443;-75
2022/10/21 03:50:51;;;;;;;10.90;7.63;;;14.10;99.90;;;;;;5088688;28;20478;-76
2022/10/21 03:53:37;;;;;;;11.50;8.13;;;14.00;99.90;;;;;;5091928;28;20408;-76
2022/10/21 03:56:22;;;;;;;17.33;8.70;;;14.00;99.90;;;;;;5087044;28;20790;-76
2022/10/21 03:59:08;;;;;;;16.33;8.37;;;14.00;99.90;;;;;;5084275;28;20904;-76
2022/10/21 04:01:55;;;;;;;14.30;8.97;;;13.90;99.90;;;;;;5088886;28;20434;-76
2022/10/21 04:04:40;;;;;;;22.27;8.73;;;13.90;99.90;;;;;;5087537;28;20397;-75
2022/10/21 04:07:26;;;;;;;16.90;8.60;;;13.90;99.90;;;;;;5085188;28;20791;-76
2022/10/21 04:10:12;;;;;;;36.97;9.10;;;13.80;99.90;;;;;;5089836;28;20506;-76
2022/10/21 04:12:58;;;;;;;12.27;7.70;;;13.80;99.90;;;;;;5093464;28;20807;-76
2022/10/21 04:15:44;;;;;;;10.73;7.73;;;13.80;99.90;;;;;;5091375;28;20392;-75
2022/10/21 04:18:31;;;;;;;11.60;7.23;;;13.80;99.90;;;;;;5086267;28;20422;-76
2022/10/21 04:21:17;;;;;;;20.87;8.07;;;13.90;99.90;;;;;;5086341;28;20417;-76
2022/10/21 04:24:02;;;;;;;12.97;7.90;;;13.90;99.90;;;;;;5090388;28;20397;-75
2022/10/21 04:26:48;;;;;;;16.27;8.20;;;13.90;99.90;;;;;;5085397;28;20522;-76
2022/10/21 04:29:33;;;;;;;23.67;10.50;;;13.90;99.90;;;;;;5090585;28;20413;-76
2022/10/21 04:32:19;;;;;;;18.60;7.30;;;14.00;99.90;;;;;;5090245;28;21094;-75
2022/10/21 04:35:07;;;;;;;20.93;11.63;;;13.90;99.90;;;;;;5084603;28;20417;-76
2022/10/21 04:37:52;;;;;;;18.60;9.90;;;13.90;99.90;;;;;;5082754;28;20413;-76
2022/10/21 04:40:38;;;;;;;20.30;8.67;;;14.00;99.90;;;;;;5086382;28;20493;-75
2022/10/21 04:43:24;;;;;;;12.10;7.43;;;13.90;99.90;;;;;;5088435;28;20459;-76
2022/10/21 04:46:12;;;;;;;13.70;9.20;;;13.90;99.90;;;;;;5084474;28;20586;-76
2022/10/21 04:48:58;;;;;;;12.27;8.50;;;13.80;99.90;;;;;;5085495;28;20430;-76
2022/10/21 04:51:45;;;;;;;11.40;8.30;;;13.80;99.90;;;;;;5089510;28;20461;-75
2022/10/21 04:54:31;;;;;;;17.30;7.53;;;13.90;99.90;;;;;;5084021;28;20443;-76
2022/10/21 04:57:17;;;;;;;12.37;7.40;;;13.90;99.90;;;;;;5085019;28;20420;-76
2022/10/21 05:00:03;;;;;;;12.07;6.87;;;13.90;99.90;;;;;;5083326;28;20454;-76
2022/10/21 05:02:49;;;;;;;15.50;7.03;;;13.90;99.90;;;;;;5087393;28;20456;-76
2022/10/21 05:05:35;;;;;;;8.37;6.40;;;13.80;99.90;;;;;;5085074;28;20963;-76
2022/10/21 05:08:22;;;;;;;11.13;6.50;;;13.80;99.90;;;;;;5089690;28;21111;-76
2022/10/21 05:11:08;;;;;;;8.70;6.80;;;13.80;99.90;;;;;;5090192;28;20973;-76
2022/10/21 05:13:53;;;;;;;13.80;8.00;;;13.70;99.90;;;;;;5084565;28;20511;-77
2022/10/21 05:16:39;;;;;;;10.87;7.73;;;13.80;99.90;;;;;;5086174;28;20434;-76
2022/10/21 05:19:25;;;;;;;9.53;6.87;;;13.80;99.90;;;;;;5090540;28;20445;-75
2022/10/21 05:22:12;;;;;;;12.57;7.23;;;13.80;99.90;;;;;;5078875;28;20425;-75
2022/10/21 05:24:59;;;;;;;16.43;6.43;;;13.80;99.90;;;;;;5081635;28;20413;-75
2022/10/21 05:27:45;;;;;;;16.13;7.67;;;13.80;99.90;;;;;;5087476;28;20469;-75
2022/10/21 05:30:30;;;;;;;13.93;8.10;;;13.80;99.90;;;;;;5084558;28;20535;-75
2022/10/21 05:33:16;;;;;;;13.33;7.87;;;13.80;99.90;;;;;;5086421;28;20424;-75
2022/10/21 05:36:06;;;;;;;10.20;7.40;;;13.80;99.90;;;;;;5087708;28;20462;-75
2022/10/21 05:38:52;;;;;;;19.13;7.57;;;13.80;99.90;;;;;;5088027;28;21084;-75
2022/10/21 05:41:39;;;;;;;15.13;7.77;;;13.80;99.90;;;;;;5084773;28;20470;-75
2022/10/21 05:44:25;;;;;;;13.00;7.13;;;13.70;99.90;;;;;;5089031;28;20473;-75
2022/10/21 05:47:10;;;;;;;9.73;7.80;;;13.80;99.90;;;;;;5086169;28;20469;-75
2022/10/21 05:49:56;;;;;;;11.57;7.60;;;13.70;99.90;;;;;;5087806;28;21072;-75
2022/10/21 05:52:42;;;;;;;11.77;7.80;;;13.80;99.90;;;;;;5087338;28;20416;-75
2022/10/21 05:55:27;;;;;;;11.57;7.00;;;13.80;99.90;;;;;;5086189;28;20416;-75
2022/10/21 05:58:14;;;;;;;13.43;8.57;;;13.90;99.90;;;;;;5087058;28;21066;-75
2022/10/21 06:01:00;;;;;;;12.63;7.50;;;13.90;99.90;;;;;;5081973;28;20454;-75
2022/10/21 06:03:46;;;;;;;11.73;8.63;;;13.90;99.90;;;;;;5086358;28;20523;-75
2022/10/21 06:06:31;;;;;;;9.40;7.53;;;13.90;99.90;;;;;;5085251;28;20476;-75
2022/10/21 06:09:17;;;;;;;11.30;8.80;;;13.90;99.90;;;;;;5077671;28;20417;-75
2022/10/21 06:12:03;;;;;;;36.33;10.37;;;13.90;99.90;;;;;;5089949;28;20548;-76
2022/10/21 06:14:50;;;;;;;12.23;8.30;;;13.90;99.90;;;;;;5082024;28;20596;-75
2022/10/21 06:17:36;;;;;;;15.47;9.00;;;14.00;99.90;;;;;;5091761;28;20499;-75
2022/10/21 06:20:22;;;;;;;14.50;9.17;;;14.00;99.90;;;;;;5091353;28;20504;-76
2022/10/21 06:23:08;;;;;;;20.43;8.77;;;14.10;99.90;;;;;;5086459;28;20548;-75
2022/10/21 06:25:57;;;;;;;16.03;8.37;;;14.10;99.90;;;;;;5078727;28;20409;-75
2022/10/21 06:28:44;;;;;;;13.27;8.50;;;14.00;99.90;;;;;;5088578;28;20422;-75
2022/10/21 06:31:31;;;;;;;16.17;7.93;;;14.10;99.90;;;;;;5083652;28;20872;-75
2022/10/21 06:34:17;;;;;;;15.87;8.30;;;14.10;99.90;;;;;;5088232;28;20421;-75
2022/10/21 06:37:02;;;;;;;13.27;8.90;;;14.20;99.90;;;;;;5080712;28;20413;-75
2022/10/21 06:39:48;;;;;;;9.97;8.60;;;14.20;99.90;;;;;;5085560;28;20411;-76
2022/10/21 06:42:34;;;;;;;9.60;7.80;;;14.20;99.90;;;;;;5088490;28;20409;-75
2022/10/21 06:45:19;;;;;;;9.97;8.10;;;14.30;99.90;;;;;;5083513;28;20440;-75
2022/10/21 06:48:07;;;;;;;16.00;9.07;;;14.20;99.90;;;;;;5089361;28;20530;-75
2022/10/21 06:50:57;;;;;;;18.73;8.53;;;14.30;99.90;;;;;;5079028;28;20457;-76
2022/10/21 06:53:43;;;;;;;14.77;7.53;;;14.30;99.90;;;;;;5082503;28;20856;-75
2022/10/21 06:56:30;;;;;;;15.50;8.83;;;14.40;99.90;;;;;;5087931;28;20800;-76
2022/10/21 06:59:16;;;;;;;13.83;8.37;;;14.30;99.90;;;;;;5079538;28;20424;-76
2022/10/21 07:02:02;;;;;;;9.50;8.27;;;14.30;99.90;;;;;;5081285;28;20413;-75
2022/10/21 07:04:49;;;;;;;19.33;9.67;;;14.40;99.90;;;;;;5079170;28;20804;-75
2022/10/21 07:07:34;;;;;;;13.83;9.40;;;14.40;99.90;;;;;;5085955;28;20473;-75
2022/10/21 07:10:20;;;;;;;14.03;9.07;;;14.40;99.90;;;;;;5084629;28;20440;-75
2022/10/21 07:13:06;;;;;;;11.77;9.17;;;14.40;99.90;;;;;;5088328;28;20495;-76
2022/10/21 07:15:59;;;;;;;17.43;8.20;;;14.40;99.90;;;;;;5091237;28;20449;-75
2022/10/21 07:18:44;;;;;;;11.00;8.67;;;14.50;99.90;;;;;;5093991;28;20430;-76
2022/10/21 07:21:32;;;;;;;14.37;8.83;;;14.50;99.90;;;;;;5080227;28;20451;-76
2022/10/21 07:24:17;;;;;;;13.90;10.20;;;14.50;99.90;;;;;;5087447;28;20986;-76
2022/10/21 07:27:03;;;;;;;16.00;10.73;;;14.50;99.90;;;;;;5083144;28;20540;-75
2022/10/21 07:29:49;;;;;;;16.60;11.57;;;14.50;99.90;;;;;;5092617;28;20929;-75
2022/10/21 07:32:34;;;;;;;19.60;13.33;;;14.50;99.90;;;;;;5087999;28;20764;-75
2022/10/21 07:35:19;;;;;;;17.93;12.93;;;14.60;99.90;;;;;;5089029;28;20548;-75
2022/10/21 07:38:07;;;;;;;17.90;14.50;;;14.60;99.90;;;;;;5089795;28;20458;-75
2022/10/21 07:40:52;;;;;;;16.73;14.07;;;14.60;99.90;;;;;;5090714;28;20523;-76
2022/10/21 07:43:38;;;;;;;17.70;13.27;;;14.60;99.90;;;;;;5085301;28;20584;-76
2022/10/21 07:46:23;;;;;;;16.43;13.63;;;14.70;99.90;;;;;;5088883;28;20493;-75
2022/10/21 07:49:10;;;;;;;16.57;14.03;;;14.70;99.90;;;;;;5088935;28;20497;-75
2022/10/21 07:51:56;;;;;;;16.27;12.57;;;14.70;99.90;;;;;;5083679;28;20452;-75
2022/10/21 07:54:43;;;;;;;24.97;14.97;;;14.70;99.90;;;;;;5084070;28;20484;-75
2022/10/21 07:57:29;;;;;;;28.23;14.97;;;14.70;99.90;;;;;;5092460;28;20490;-75
2022/10/21 08:00:15;;;;;;;20.57;18.47;;;14.80;99.90;;;;;;5090235;28;20456;-75
2022/10/21 08:03:00;;;;;;;35.90;23.60;;;14.80;99.90;;;;;;5086322;28;20400;-75
2022/10/21 08:05:46;;;;;;;26.90;24.07;;;14.80;99.90;;;;;;5090126;28;20516;-75
2022/10/21 08:08:32;;;;;;;30.23;26.80;;;14.80;99.90;;;;;;5085943;28;20436;-75
2022/10/21 08:11:23;;;;;;;36.43;28.23;;;14.80;99.90;;;;;;5093591;28;20901;-75
2022/10/21 08:14:10;;;;;;;38.00;31.23;;;14.90;99.90;;;;;;5087448;28;20434;-75
2022/10/21 08:16:56;;;;;;;31.83;28.40;;;14.90;99.90;;;;;;5092222;28;20438;-76
2022/10/21 08:19:41;;;;;;;29.40;24.93;;;14.90;99.90;;;;;;5086524;28;20426;-75
2022/10/21 08:22:27;;;;;;;28.50;24.90;;;15.00;99.90;;;;;;5087017;28;20460;-75
2022/10/21 08:25:15;;;;;;;27.33;24.47;;;15.10;99.90;;;;;;5092092;28;20515;-75
2022/10/21 08:28:02;;;;;;;30.43;22.17;;;15.10;99.90;;;;;;5089023;28;20469;-75
2022/10/21 08:30:48;;;;;;;24.10;19.00;;;15.10;99.90;;;;;;5091737;28;20465;-75
2022/10/21 08:33:34;;;;;;;23.03;20.47;;;15.10;99.90;;;;;;5088138;28;20436;-76
2022/10/21 08:36:23;;;;;;;22.97;20.67;;;15.10;99.90;;;;;;5089885;28;20420;-75
2022/10/21 08:39:09;;;;;;;26.60;22.53;;;15.10;99.90;;;;;;5086776;28;20434;-75
2022/10/21 08:42:08;;;;;;;27.03;22.13;;;15.10;99.90;;;;;;5083983;28;20805;-75
2022/10/21 08:44:59;;;;;;;29.37;23.20;;;15.20;99.90;;;;;;5086026;28;20434;-75
2022/10/21 08:47:49;;;;;;;28.40;24.37;;;15.20;99.90;;;;;;5088837;28;20457;-75
2022/10/21 08:50:39;;;;;;;27.50;23.93;;;15.20;99.90;;;;;;5088655;28;20470;-75
2022/10/21 08:53:31;;;;;;;29.90;24.87;;;15.20;99.90;;;;;;5081043;28;20437;-75
2022/10/21 08:56:17;;;;;;;28.30;21.20;;;15.20;99.90;;;;;;5085610;28;20409;-75
2022/10/21 08:59:03;;;;;;;24.60;21.87;;;15.30;99.90;;;;;;5086303;28;20396;-75
2022/10/21 09:01:59;;;;;;;28.47;22.67;;;15.30;99.90;;;;;;5086334;28;21048;-75
2022/10/21 09:04:52;;;;;;;30.43;20.73;;;15.30;99.90;;;;;;5086597;28;20506;-75
2022/10/21 09:07:45;;;;;;;20.10;18.00;;;15.30;99.90;;;;;;5089277;28;20460;-75
2022/10/21 09:10:43;;;;;;;22.77;17.83;;;15.30;99.90;;;;;;5089741;28;20512;-76
2022/10/21 09:14:02;;;;;;;22.60;14.97;;;15.30;99.90;;;;;;5087165;28;20458;-76
2022/10/21 09:16:56;;;;;;;21.60;16.30;;;15.40;99.90;;;;;;5084157;28;20420;-75
2022/10/21 09:19:51;;;;;;;33.20;15.37;;;15.40;99.90;;;;;;5087609;28;20954;-76
2022/10/21 09:22:53;;;;;;;20.30;14.80;;;15.50;99.90;;;;;;5088342;28;20449;-75
2022/10/21 09:25:49;;;;;;;28.90;15.40;;;15.50;99.90;;;;;;5084038;28;20432;-75
2022/10/21 09:28:36;;;;;;;19.80;12.70;;;15.60;99.90;;;;;;5085774;28;20448;-74
2022/10/21 09:31:22;;;;;;;14.43;7.63;;;15.70;99.90;;;;;;5080852;28;20815;-73
2022/10/21 09:34:18;;;;;;;13.43;6.80;;;15.70;99.90;;;;;;5089442;28;20921;-74
2022/10/21 09:37:12;;;;;;;13.80;5.50;;;15.70;99.90;;;;;;5089707;28;20429;-74
2022/10/21 09:40:12;;;;;;;10.03;5.97;;;15.80;99.90;;;;;;5083664;28;20566;-74
2022/10/21 09:43:00;;;;;;;8.87;4.37;;;15.80;99.90;;;;;;5083214;28;20461;-74
2022/10/21 09:45:47;;;;;;;12.70;5.53;;;15.90;99.90;;;;;;5083519;28;20878;-74
2022/10/21 09:48:40;;;;;;;9.90;4.17;;;15.90;99.90;;;;;;5082391;28;20436;-74
2022/10/21 09:51:31;;;;;;;9.37;4.10;;;15.90;99.90;;;;;;5085665;28;20461;-74
2022/10/21 09:54:20;;;;;;;6.87;3.40;;;16.00;99.90;;;;;;5084612;28;20389;-74
2022/10/21 09:57:13;;;;;;;8.63;3.57;;;16.10;99.90;;;;;;5091584;28;20413;-74
2022/10/21 10:00:01;;;;;;;4.83;2.87;;;16.10;99.90;;;;;;5090748;28;20449;-74
2022/10/21 10:02:47;;;;;;;15.27;3.50;;;16.00;99.90;;;;;;5081237;28;20432;-73
2022/10/21 10:05:40;;;;;;;8.30;2.77;;;16.00;99.90;;;;;;5088377;28;20404;-74
2022/10/21 10:08:31;;;;;;;7.47;3.17;;;16.00;99.90;;;;;;5084176;28;20466;-73
2022/10/21 10:11:21;;;;;;;5.83;2.37;;;16.00;99.90;;;;;;5082037;28;20466;-74
2022/10/21 10:14:25;;;;;;;11.07;3.30;;;16.00;99.90;;;;;;5079939;28;20419;-73
2022/10/21 10:17:29;;;;;;;5.77;2.57;;;15.90;99.90;;;;;;5090808;28;20942;-74
2022/10/21 10:20:18;;;;;;;4.70;2.30;;;15.90;99.90;;;;;;5088519;28;20427;-73
2022/10/21 10:23:10;;;;;;;4.90;2.40;;;15.90;99.90;;;;;;5084927;28;20408;-73
2022/10/21 10:25:57;;;;;;;5.00;1.83;;;15.90;99.90;;;;;;5082123;28;20416;-74
2022/10/21 10:28:50;;;;;;;6.30;2.27;;;15.80;99.90;;;;;;5086612;28;20994;-73
2022/10/21 10:31:37;;;;;;;5.30;2.00;;;15.80;99.90;;;;;;5080927;28;20553;-73
2022/10/21 10:34:27;;;;;;;3.20;2.20;;;15.90;99.90;;;;;;5082048;28;20930;-73
2022/10/21 10:37:18;;;;;;;9.37;2.43;;;15.90;99.90;;;;;;5080253;28;20430;-73
2022/10/21 10:40:08;;;;;;;6.40;3.10;;;15.90;99.90;;;;;;5080525;28;20464;-73
2022/10/21 10:43:03;;;;;;;3.60;2.80;;;16.00;99.90;;;;;;5083665;28;20416;-73
2022/10/21 10:45:53;;;;;;;4.60;2.33;;;15.90;99.90;;;;;;5081331;28;20434;-74
2022/10/21 10:48:43;;;;;;;7.50;3.30;;;15.90;99.90;;;;;;5078895;28;20448;-74
2022/10/21 10:51:31;;;;;;;8.00;2.93;;;15.80;99.90;;;;;;5078627;28;20416;-74
2022/10/21 10:54:19;;;;;;;5.50;2.27;;;15.80;99.90;;;;;;5081439;28;20475;-73
2022/10/21 10:57:11;;;;;;;4.30;2.60;;;15.80;99.90;;;;;;5083260;28;20393;-74
2022/10/21 11:00:04;;;;;;;4.90;2.30;;;15.90;99.90;;;;;;5085702;28;20526;-74
2022/10/21 11:02:57;;;;;;;3.80;2.20;;;15.90;99.90;;;;;;5087323;28;20423;-74
2022/10/21 11:05:46;;;;;;;5.87;2.70;;;15.90;99.90;;;;;;5084381;28;20396;-74
2022/10/21 11:08:37;;;;;;;4.07;3.07;;;16.00;99.90;;;;;;5081466;28;20546;-74
2022/10/21 11:11:26;;;;;;;8.67;3.57;;;16.10;99.90;;;;;;5089610;28;20837;-74
2022/10/21 11:14:15;;;;;;;4.10;3.47;;;16.10;99.90;;;;;;5081066;28;20955;-74
2022/10/21 11:17:09;;;;;;;5.80;3.90;;;16.20;99.90;;;;;;5085260;28;20471;-73
2022/10/21 11:20:00;;;;;;;3.47;2.90;;;16.30;99.90;;;;;;5087710;28;20460;-73
2022/10/21 11:23:00;;;;;;;4.40;3.40;;;16.40;99.90;;;;;;5082417;28;20425;-76
2022/10/21 11:25:51;;;;;;;5.50;3.43;;;16.50;99.90;;;;;;5076304;28;20470;-76
2022/10/21 11:28:44;;;;;;;4.17;3.00;;;16.50;99.90;;;;;;5088241;28;20469;-74
2022/10/21 11:31:41;;;;;;;4.80;3.90;;;16.40;99.90;;;;;;5085480;28;21065;-74
2022/10/21 11:34:39;;;;;;;5.37;2.87;;;16.50;99.90;;;;;;5088577;28;20783;-74
2022/10/21 11:37:43;;;;;;;4.57;2.97;;;16.40;99.90;;;;;;5086874;28;20783;-74
2022/10/21 11:40:36;;;;;;;11.73;3.47;;;16.40;99.90;;;;;;5082844;28;20481;-74
2022/10/21 11:43:34;;;;;;;6.50;3.00;;;16.40;99.90;;;;;;5083862;28;20516;-74
2022/10/21 11:46:27;;;;;;;4.30;2.70;;;16.50;99.90;;;;;;5087017;28;20478;-74
2022/10/21 11:49:26;;;;;;;3.73;2.60;;;16.50;99.90;;;;;;5081323;28;20439;-75
2022/10/21 11:52:27;;;;;;;4.03;2.47;;;16.70;99.90;;;;;;5085726;28;20517;-75
2022/10/21 11:55:37;;;;;;;15.23;3.03;;;16.70;99.90;;;;;;5083288;28;20435;-75
2022/10/21 11:58:38;;;;;;;5.40;2.97;;;16.70;99.90;;;;;;5080367;28;20435;-74
2022/10/21 12:01:35;;;;;;;8.33;2.97;;;16.90;99.90;;;;;;5084190;28;20574;-74
2022/10/21 12:04:46;;;;;;;4.27;2.10;;;17.10;99.90;;;;;;5083503;28;20400;-75
2022/10/21 12:07:49;;;;;;;3.50;2.40;;;17.40;99.90;;;;;;5087819;28;20442;-75
2022/10/21 12:10:39;;;;;;;6.50;2.10;;;17.50;99.90;;;;;;5081727;28;20419;-75
2022/10/21 12:13:29;;;;;;;6.43;1.80;;;17.50;99.90;;;;;;5090498;28;20396;-75
2022/10/21 12:16:18;;;;;;;9.33;2.10;;;17.50;99.90;;;;;;5091203;28;20553;-75
2022/10/21 12:19:10;;;;;;;4.50;2.27;;;17.50;99.90;;;;;;5088325;28;21143;-75
2022/10/21 12:21:56;;;;;;;4.43;1.90;;;17.60;99.90;;;;;;5089125;28;20461;-75
2022/10/21 12:24:49;;;;;;;5.27;2.53;;;17.60;99.90;;;;;;5088751;28;20793;-75
2022/10/21 12:27:42;;;;;;;5.63;2.33;;;17.60;99.90;;;;;;5091174;28;20441;-75
2022/10/21 12:30:36;;;;;;;6.73;2.67;;;17.40;99.90;;;;;;5088423;28;20485;-75
2022/10/21 12:33:35;;;;;;;5.83;2.33;;;17.40;99.90;;;;;;5079983;28;20798;-75
2022/10/21 12:36:39;;;;;;;7.80;2.40;;;17.40;99.90;;;;;;5084815;28;20432;-74
2022/10/21 12:40:08;;;;;;;5.20;3.20;;;17.40;99.90;;;;;;5087805;28;20445;-75
2022/10/21 12:42:59;;;;;;;8.53;2.10;;;17.60;99.90;;;;;;5093028;28;20454;-75
2022/10/21 12:45:44;;;;;;;4.50;2.10;;;17.80;99.90;;;;;;5087104;28;20515;-75
2022/10/21 12:48:38;;;;;;;3.97;1.83;;;18.00;99.90;;;;;;5087127;28;20457;-75
2022/10/21 12:51:26;;;;;;;3.83;2.43;;;18.20;99.90;;;;;;5083462;28;20470;-75
2022/10/21 12:54:17;;;;;;;6.87;2.50;;;18.40;99.90;;;;;;5077901;28;20397;-75
2022/10/21 12:57:07;;;;;;;4.50;2.30;;;18.60;99.90;;;;;;5091130;28;20487;-75
2022/10/21 13:00:30;;;;;;;3.07;1.80;;;18.90;99.90;;;;;;5088427;28;20418;-75
2022/10/21 13:03:21;;;;;;;4.30;1.97;;;19.10;99.90;;;;;;5088352;28;20423;-75
2022/10/21 13:06:07;;;;;;;3.10;1.87;;;19.30;99.90;;;;;;5085805;28;20949;-75
2022/10/21 13:08:54;;;;;;;3.20;1.60;;;19.20;99.90;;;;;;5088850;28;20813;-75
2022/10/21 13:11:40;;;;;;;2.40;1.33;;;19.10;99.90;;;;;;5084714;28;20451;-75
2022/10/21 13:14:29;;;;;;;12.20;1.97;;;18.80;99.90;;;;;;5081052;28;20573;-75
2022/10/21 13:17:47;;;;;;;6.23;1.93;;;18.60;99.90;;;;;;5079587;28;20456;-75
2022/10/21 13:20:48;;;;;;;9.57;2.03;;;18.50;99.90;;;;;;5087992;28;21144;-75
2022/10/21 13:23:40;;;;;;;3.63;1.70;;;18.50;99.90;;;;;;5084552;28;20410;-75
2022/10/21 13:26:28;;;;;;;6.20;2.50;;;18.50;99.90;;;;;;5077200;28;20405;-75
2022/10/21 13:29:43;;;;;;;6.30;2.70;;;18.40;99.90;;;;;;5076610;28;20851;-75
2022/10/21 13:32:31;;;;;;;4.17;2.13;;;18.10;99.90;;;;;;5085036;28;20499;-75
2022/10/21 13:35:30;;;;;;;6.23;2.20;;;18.00;99.90;;;;;;5084376;28;20414;-75
2022/10/21 13:38:23;;;;;;;4.80;2.17;;;17.90;99.90;;;;;;5081730;28;20806;-75
2022/10/21 13:41:22;;;;;;;5.50;2.17;;;17.90;99.90;;;;;;5090535;28;20568;-75
2022/10/21 13:44:24;;;;;;;9.60;2.27;;;17.80;99.90;;;;;;5076254;28;20399;-75
2022/10/21 13:47:27;;;;;;;9.33;2.50;;;17.80;99.90;;;;;;5088956;28;20408;-75
2022/10/21 13:50:18;;;;;;;4.30;2.97;;;17.80;99.90;;;;;;5079184;28;20470;-75
2022/10/21 13:53:19;;;;;;;5.57;2.83;;;17.70;99.90;;;;;;5087285;28;20439;-74
2022/10/21 13:56:08;;;;;;;8.63;4.23;;;17.70;99.90;;;;;;5085209;28;20454;-75
2022/10/21 13:58:54;;;;;;;10.53;3.10;;;17.70;99.90;;;;;;5083103;28;20920;-75
2022/10/21 14:01:46;;;;;;;5.07;2.77;;;17.50;99.90;;;;;;5086093;28;20566;-75
2022/10/21 14:04:33;;;;;;;7.60;2.80;;;17.50;99.90;;;;;;5082215;28;20502;-75
2022/10/21 14:07:20;;;;;;;5.33;3.03;;;17.40;99.90;;;;;;5083551;28;20989;-75
2022/10/21 14:10:06;;;;;;;7.67;3.20;;;17.40;99.90;;;;;;5077115;28;20552;-75
2022/10/21 14:12:55;;;;;;;8.17;3.53;;;17.40;99.90;;;;;;5086891;28;20438;-75
2022/10/21 14:15:44;;;;;;;5.30;3.27;;;17.40;99.90;;;;;;5084845;28;20489;-75
2022/10/21 14:18:32;;;;;;;8.30;3.77;;;17.40;99.90;;;;;;5085255;28;20416;-75
2022/10/21 14:21:21;;;;;;;8.27;3.40;;;17.40;99.90;;;;;;5081377;28;20473;-74
2022/10/21 14:24:15;;;;;;;7.03;2.97;;;17.40;99.90;;;;;;5081346;28;20428;-75
2022/10/21 14:27:02;;;;;;;13.90;2.73;;;17.40;99.90;;;;;;5083930;28;20664;-75
2022/10/21 14:29:49;;;;;;;7.13;3.23;;;17.40;99.90;;;;;;5075094;28;20836;-75
2022/10/21 14:32:35;;;;;;;11.53;4.63;;;17.40;99.90;;;;;;5085297;28;20459;-75